Bei Facebook empfehlenBei Twitter postenGoogle plusPinterest

Das Wetter im Erzgebirge am 12.12.2016

Wetter und Klima am 12.12.2016 Holzhau im Erzgebirge (630m ü.NN)
Letzte gemessene Temperatur und Uhrzeit der Messung23:45:00 Uhr-0.40 °C
Temperatur (Maximum / Höchstwert) und Uhrzeit der Messung11:15:00 Uhr2.90 °C
Temperatur (Minimum / Tiefstwert) und Uhrzeit der Messung22:45:00-0.90 °C
Errechneter Absolutwert der Temperaturschwankungen zwischen Tmin und Tmax des Tages3.80 K
Errechnete Tagesmitteltemperatur1.45938 °C
Gesamt - Niederschlag des Tages (in flüssiger Form)13.98 Liter / m²
Luftdruck (Maximum / Höchstwert) und Zeitpunkt der Messung23:30:00 Uhr1022.10 hPa
Luftdruck (Minimum / Tiefstwert) und Zeitpunkt der Messung05:30:00 Uhr1012.10 hPa
Errechneter Absolutwert der Luftdruckschwankungen des Tages10.00 hPa
Höchste gemessene Windgeschwindigkeit und Uhrzeit der Messung23:45:00 Uhr0.00 km/h
Errechnete Windhäufigkeit in Relation zu den Messwerten des Tages0.00000 %
Niedrigste Windkühle (Windchill) und Zeitpunkt der Messung22:45:00 Uhr-0.90 °C
Taupunkt (Maximum / Höchstwert) und Uhrzeit der Messung11:15:00 Uhr2.50 °C
Taupunkt (Minimum / Tiefstwert) und Uhrzeit der Messung22:45:00-1.50 °C
Anzahl der automatisch eingelesenen Messwerte 96

Detaillierte Wetter- und Klima- Messwerte für den 12.12.2016 in Holzhau im Erzgebirge (630m ü.NN)
ZeitTemperaturLuftdruckRel. LuftfeuchteWindWindrichtungWindchillTaupunktNiederschlag l/m²
23:45:00-0.40 °C1022.00 hPa97.00 %-0.90 °C13.98
23:30:00-0.40 °C1022.10 hPa97.00 %-0.90 °C13.98
23:15:00-0.50 °C1021.90 hPa97.00 %-1.00 °C13.98
23:00:00-0.70 °C1022.10 hPa97.00 %-1.20 °C13.98
22:45:00-0.90 °C1021.90 hPa96.00 %-1.50 °C13.98
22:30:00-0.80 °C1021.70 hPa96.00 %-1.40 °C13.98
22:15:00-0.60 °C1021.40 hPa97.00 %-1.10 °C13.98
22:00:00-0.60 °C1021.50 hPa97.00 %-1.10 °C13.98
21:45:00-0.70 °C1021.50 hPa97.00 %-1.20 °C13.98
21:30:00-0.60 °C1021.50 hPa97.00 %-1.10 °C13.98
21:15:00-0.50 °C1021.50 hPa97.00 %-1.00 °C13.98
21:00:00-0.40 °C1021.30 hPa97.00 %-0.90 °C13.98
20:45:00-0.40 °C1021.50 hPa97.00 %-0.90 °C13.98
20:30:00-0.40 °C1021.40 hPa97.00 %-0.90 °C13.98
20:15:00-0.40 °C1021.50 hPa97.00 %-0.90 °C13.98
20:00:00-0.30 °C1021.50 hPa97.00 %-0.80 °C13.98
19:45:00-0.20 °C1021.20 hPa97.00 %-0.70 °C13.98
19:30:00-0.20 °C1021.20 hPa97.00 %-0.70 °C13.98
19:15:00-0.20 °C1021.00 hPa97.00 %-0.70 °C13.98
19:00:00-0.20 °C1020.90 hPa97.00 %-0.70 °C13.98
18:45:00-0.20 °C1021.00 hPa97.00 %-0.70 °C13.98
18:30:00-0.20 °C1021.00 hPa97.00 %-0.70 °C13.98
18:15:00-0.20 °C1020.60 hPa97.00 %-0.70 °C13.98
18:00:00-0.10 °C1020.60 hPa97.00 %-0.60 °C13.98
17:45:00-0.10 °C1020.60 hPa97.00 %-0.60 °C13.98
17:30:000.10 °C1020.40 hPa97.00 %-0.30 °C13.98
17:15:000.20 °C1020.30 hPa97.00 %-0.20 °C13.98
17:00:000.30 °C1020.40 hPa97.00 %-0.10 °C13.98
16:45:000.30 °C1020.10 hPa97.00 %-0.10 °C13.98
16:30:000.40 °C1020.00 hPa97.00 %0.00 °C13.98
16:15:000.40 °C1019.60 hPa97.00 %0.00 °C13.98
16:00:000.40 °C1019.40 hPa97.00 %0.00 °C13.98
15:45:000.50 °C1019.30 hPa97.00 %0.10 °C13.98
15:30:000.80 °C1019.00 hPa97.00 %0.40 °C13.98
15:15:001.10 °C1018.80 hPa96.00 %0.50 °C13.47
15:00:001.50 °C1018.70 hPa97.00 %1.10 °C13.47
14:45:001.60 °C1018.40 hPa97.00 %1.20 °C13.47
14:30:002.10 °C1018.40 hPa97.00 %1.70 °C13.47
14:15:002.20 °C1018.20 hPa97.00 %1.80 °C12.95
14:00:002.10 °C1018.20 hPa97.00 %1.70 °C12.95
13:45:002.20 °C1018.00 hPa97.00 %1.80 °C12.95
13:30:002.10 °C1018.10 hPa97.00 %1.70 °C12.95
13:15:002.20 °C1017.90 hPa97.00 %1.80 °C12.95
13:00:002.40 °C1017.70 hPa97.00 %2.00 °C12.95
12:45:002.50 °C1017.50 hPa97.00 %2.10 °C12.43
12:30:002.60 °C1017.40 hPa97.00 %2.20 °C12.43
12:15:002.60 °C1017.20 hPa97.00 %2.20 °C11.91
12:00:002.70 °C1017.20 hPa97.00 %2.30 °C11.91
11:45:002.70 °C1017.00 hPa97.00 %2.30 °C11.91
11:30:002.70 °C1016.90 hPa97.00 %2.30 °C11.91
11:15:002.90 °C1016.50 hPa97.00 %2.50 °C11.39
11:00:002.90 °C1016.30 hPa97.00 %2.50 °C11.39
10:45:002.90 °C1016.20 hPa97.00 %2.50 °C11.39
10:30:002.90 °C1016.20 hPa97.00 %2.50 °C11.39
10:15:002.50 °C1015.90 hPa97.00 %2.10 °C11.39
10:00:002.30 °C1015.90 hPa97.00 %1.90 °C11.39
09:45:002.30 °C1015.50 hPa97.00 %1.90 °C11.39
09:30:002.30 °C1015.30 hPa97.00 %1.90 °C10.88
09:15:002.30 °C1015.00 hPa97.00 %1.90 °C10.36
09:00:002.20 °C1014.70 hPa97.00 %1.80 °C10.36
08:45:002.20 °C1014.40 hPa97.00 %1.80 °C10.36
08:30:002.30 °C1014.10 hPa97.00 %1.90 °C9.32
08:15:002.40 °C1014.00 hPa97.00 %2.00 °C9.32
08:00:002.50 °C1013.80 hPa97.00 %2.10 °C8.29
07:45:002.60 °C1013.60 hPa97.00 %2.20 °C8.29
07:30:002.80 °C1013.20 hPa97.00 %2.40 °C7.25
07:15:002.60 °C1013.00 hPa97.00 %2.20 °C7.25
07:00:002.60 °C1012.80 hPa97.00 %2.20 °C6.21
06:45:002.40 °C1012.40 hPa97.00 %2.00 °C6.21
06:30:002.40 °C1012.50 hPa97.00 %2.00 °C6.21
06:15:002.40 °C1012.60 hPa97.00 %2.00 °C5.70
06:00:002.40 °C1012.40 hPa97.00 %2.00 °C5.18
05:45:002.50 °C1012.20 hPa97.00 %2.10 °C4.66
05:30:002.60 °C1012.10 hPa97.00 %2.20 °C4.14
05:15:002.60 °C1012.10 hPa97.00 %2.20 °C4.14
05:00:002.50 °C1012.20 hPa97.00 %2.10 °C4.14
04:45:002.50 °C1012.20 hPa97.00 %2.10 °C3.62
04:30:002.60 °C1012.30 hPa97.00 %2.20 °C3.11
04:15:002.60 °C1012.10 hPa97.00 %2.20 °C3.11
04:00:002.60 °C1012.10 hPa97.00 %2.20 °C3.11
03:45:002.60 °C1012.10 hPa97.00 %2.20 °C3.11
03:30:002.50 °C1012.20 hPa97.00 %2.10 °C3.11
03:15:002.40 °C1012.20 hPa97.00 %2.00 °C3.11
03:00:002.40 °C1012.20 hPa97.00 %2.00 °C3.11
02:45:002.40 °C1012.10 hPa97.00 %2.00 °C2.59
02:30:002.40 °C1012.20 hPa97.00 %2.00 °C2.07
02:15:002.20 °C1012.10 hPa96.00 %1.60 °C2.07
02:00:002.10 °C1012.20 hPa96.00 %1.50 °C2.07
01:45:002.00 °C1012.20 hPa96.00 %1.40 °C2.07
01:30:002.10 °C1012.30 hPa96.00 %1.50 °C1.55
01:15:002.10 °C1012.30 hPa96.00 %1.50 °C1.03
01:00:002.20 °C1012.40 hPa96.00 %1.60 °C1.03
00:45:002.10 °C1012.40 hPa96.00 %1.50 °C1.03
00:30:002.10 °C1012.50 hPa96.00 %1.50 °C0.52
00:15:002.20 °C1012.40 hPa96.00 %1.60 °C 
00:00:002.20 °C1012.40 hPa96.00 %1.60 °C 

Permanenter Link zu dieser Seite: Wetter im Erzgebirge am 12.12.2016
Performance-Info: Die Erstellung der Seite / Statistik(en) / Tabelle(n) erforderte 5 Datenbankserver-Abfrage(n) und dauerte 98 Millisekunden. (Dieser Messwert ist von der Gesamt-Auslastung des Servers abhängig.)
Erzgebirge - Wetter | Erzgebirge - Wetter (Mobilgeräte) | Komplette Klimadatenbank